• Join FlightAware (Why Join?)
  • Login
  • US Flag 
09:51AM EDT


 

Airport Tracker/Info


-or-


 

Live Flight TrackerFlight Track Log ✈ N983CA ✈ 21-Apr-2013 ✈ KSFO - KSAN

Flight Track Log - Related Links

Times and Time Zones

All times are in EDT time to prevent confusion due to time zone crossing. See the N983CA flight status page for this flight to view local times or setup timezone preferences in your user account.

Time Position Orientation Groundspeed Altitude Reporting Facility
EDT Latitude Longitude Course Direction KTS MPH feet Rate Location/Type
12:39PM 37.6667 -122.3667 188° South 196 226 2,100  Level Northern Cal TRACON
12:39PM 37.6781 -122.3664 North 200 230 2,700 2,760 Climbing Oakland Center
12:40PM 37.6667 -122.4167 254° West 242 278 4,900 2,580 Climbing Northern Cal TRACON
12:41PM 37.4253 -122.5041 188° South  Level FlightAware Approximate
12:41PM 37.6000 -122.4500 202° Southwest 260 299 6,900  Level Northern Cal TRACON
12:41PM 37.5783 -122.4653 209° Southwest 256 295 7,400 1,800 Climbing Oakland Center
12:42PM 37.3171 -122.5200 185° South  Level FlightAware Approximate
12:42PM 37.4950 -122.4875 192° South 300 345 9,500  Level Oakland Center
12:43PM 37.2084 -122.5308 185° South  Level FlightAware Approximate
12:43PM 37.4075 -122.5017 187° South 312 359 11,000  Level Oakland Center
12:44PM 37.1070 -122.5461 188° South  Level FlightAware Approximate
12:44PM 37.3086 -122.5186 188° South 345 397 12,300  Level Oakland Center
12:45PM 37.2067 -122.5339 187° South 363 418 14,100 1,500 Climbing Oakland Center
12:46PM 37.1033 -122.5511 188° South 371 427 15,400 1,320 Climbing Oakland Center
12:47PM 36.9983 -122.5681 187° South 376 433 16,800 1,260 Climbing Oakland Center
12:48PM 36.8911 -122.5550 174° South 391 450 18,000 1,080 Climbing Oakland Center
12:49PM 36.7842 -122.5269 168° South 392 451 19,100 1,080 Climbing Oakland Center
12:50PM 36.6758 -122.5003 169° South 396 456 20,200 1,140 Climbing Oakland Center
12:51PM 36.5442 -122.4661 168° South 403 464 21,500 1,020 Climbing Oakland Center
12:52PM 36.4339 -122.4375 168° South 404 465 22,300 720 Climbing Oakland Center
12:53PM 36.3522 -122.3347 135° Southeast 419 482 23,000 660 Climbing Oakland Center
12:54PM 36.2761 -122.2222 130° Southeast 427 491 23,700 720 Climbing Oakland Center
12:55PM 36.1986 -122.1103 131° Southeast 429 494 24,500 660 Climbing Oakland Center
12:56PM 36.1206 -121.9978 131° Southeast 432 497 25,100 600 Climbing Oakland Center
12:58PM 36.0425 -121.8828 130° Southeast 435 501 25,800 780 Climbing Oakland Center
12:59PM 35.9567 -121.7639 132° Southeast 436 502 26,800 840 Climbing Oakland Center
01:00PM 35.8789 -121.6500 130° Southeast 435 501 27,600 720 Climbing Oakland Center
01:01PM 35.8014 -121.5400 131° Southeast 427 491 28,300 780 Climbing Oakland Center
01:02PM 35.7242 -121.4286 130° Southeast 427 491 29,200 780 Climbing Oakland Center
01:03PM 35.6489 -121.3197 130° Southeast 420 483 29,900 600 Climbing Oakland Center
01:04PM 35.5561 -121.1881 131° Southeast 426 490 30,500 540 Climbing Oakland Center
01:05PM 35.4792 -121.0778 131° Southeast 426 490 31,000 480 Climbing Oakland Center
01:06PM 35.4131 -120.9558 124° Southeast 429 494 31,500 480 Climbing Oakland Center
01:07PM 35.3447 -120.8369 125° Southeast 430 495 32,000 540 Climbing Oakland Center
01:07PM 35.3136 -120.7836 126° Southeast 428 493 32,300 540 Climbing Los Angeles Center
01:08PM 35.2447 -120.6631 125° Southeast 430 495 32,800 300 Climbing Los Angeles Center
01:09PM 35.1764 -120.5425 125° Southeast 430 495 33,000 60 Climbing Los Angeles Center
01:10PM 35.1053 -120.4181 125° Southeast 441 507 33,000  Level Los Angeles Center
01:11PM 35.0181 -120.2647 125° Southeast 454 522 33,000  Level Los Angeles Center
01:12PM 34.9586 -120.1611 125° Southeast 461 531 33,000  Level Los Angeles Center
01:14PM 34.8639 -119.9983 125° Southeast 468 539 33,000  Level Los Angeles Center
01:15PM 34.7731 -119.8422 125° Southeast 473 544 33,000  Level Los Angeles Center
01:16PM 34.6972 -119.7103 125° Southeast 478 550 33,000  Level Los Angeles Center
01:17PM 34.6211 -119.5803 125° Southeast 475 547 33,000  Level Los Angeles Center
01:18PM 34.5394 -119.4481 127° Southeast 473 544 33,000  Level Los Angeles Center
01:19PM 34.4619 -119.3186 126° Southeast 475 547 33,000  Level Los Angeles Center
01:20PM 34.3850 -119.1894 126° Southeast 474 545 33,000  Level Los Angeles Center
01:21PM 34.3097 -119.0600 125° Southeast 472 543 33,000  Level Los Angeles Center
01:22PM 34.2181 -118.9050 126° Southeast 472 543 33,000  Level Los Angeles Center
01:23PM 34.1400 -118.7775 126° Southeast 471 542 33,000 -300 Level Los Angeles Center
01:24PM 34.0628 -118.6494 126° Southeast 474 545 32,400 -1,080 Descending Los Angeles Center
01:25PM 33.9833 -118.5178 126° Southeast 482 555 30,800 -1,620 Descending Los Angeles Center
01:26PM 33.9047 -118.3964 128° Southeast 464 534 29,100 -1,680 Descending Los Angeles Center
01:27PM 33.8144 -118.2825 134° Southeast 449 517 27,400 -1,740 Descending Los Angeles Center
01:28PM 33.7289 -118.1711 133° Southeast 449 517 25,600 -1,620 Descending Los Angeles Center
01:29PM 33.6472 -118.0675 133° Southeast 424 488 24,100 -780 Descending Los Angeles Center
01:30PM 33.5536 -117.9492 133° Southeast 406 467 24,000 -180 Descending Los Angeles Center
01:31PM 33.4897 -117.8689 134° Southeast 412 474 23,800 -1,500 Descending Los Angeles Center
01:32PM 33.3950 -117.7483 133° Southeast 411 473 21,000 -2,340 Descending Los Angeles Center
01:33PM 33.3192 -117.6533 134° Southeast 398 458 19,000 -2,040 Descending Los Angeles Center
01:34PM 33.2500 -117.5833 140° Southeast 390 449 17,400 -1,980 Descending Southern California TRACON
01:35PM 33.1833 -117.5000 134° Southeast 369 425 15,600 -1,860 Descending Southern California TRACON
01:36PM 33.1000 -117.4333 146° Southeast 353 406 13,700 -1,980 Descending Southern California TRACON
01:36PM 33.0656 -117.4103 151° Southeast 353 406 12,900 -1,860 Descending Los Angeles Center
01:37PM 32.9819 -117.3458 147° Southeast 355 409 11,100 -1,500 Descending Los Angeles Center
01:38PM 32.9333 -117.3000 142° Southeast 333 383 10,500 -1,140 Descending Southern California TRACON
01:39PM 32.8667 -117.2500 148° Southeast 300 345 9,300 -960 Descending Southern California TRACON
01:39PM 32.8375 -117.2314 152° Southeast 301 346 9,100 -840 Descending Los Angeles Center
01:40PM 32.7992 -117.1531 120° Southeast 253 291 8,100 -1,080 Descending Los Angeles Center
01:41PM 32.8000 -117.1167 88° East 237 273 7,500 -780 Descending Southern California TRACON
01:42PM 32.7833 -117.0500 107° East 204 235 7,000 -780 Descending Southern California TRACON
01:43PM 32.7833 -116.9833 90° East 187 215 6,000 -540 Descending Southern California TRACON
01:44PM 32.7500 -116.9333 128° Southeast 196 226 6,000 -420 Level Southern California TRACON
01:45PM 32.7000 -116.9500 196° South 194 223 5,200 -1,200 Descending Southern California TRACON
01:46PM 32.6833 -117.0000 248° West 205 236 3,700 -1,500 Descending Southern California TRACON